Latest Weather Observations for Campbelltown

IDN60901

Issued at 11:41 pm EST Tuesday 27 September 2016 (issued every 10 minutes, with the page automatically refreshed every 10 minutes)

About weather observations | Map of Sydney area stations | Latest observations for Sydney area | Other Formats
Station Details ID: 068257 Name: CAMPBELLTOWN (MOUNT ANNAN) Lat: -34.06 Lon: 150.77 Height: 112.0 m
Data from the previous 72 hours. | See also: Recent months at Campbelltown
Date/Time
EST
Temp
°C
App
Temp
°C
Dew
Point
°C
Rel
Hum
%
Delta-T
°C
Wind Press
QNH
hPa
Press
MSL
hPa
Rain since
9am
mm
Dir  Spd
km/h
Gust
km/h
Spd
kts
Gust
kts
27/11:30pm 5.8 4.2 2.6 80 1.3 CALM 0 0 0 0 - - 0.0
27/11:00pm 6.3 4.7 2.6 77 1.5 CALM 0 0 0 0 - - 0.0
27/10:30pm 6.9 4.6 2.6 74 1.8 SSW 4 7 2 4 - - 0.0
27/10:00pm 7.9 6.3 2.6 69 2.2 CALM 0 0 0 0 - - 0.0
27/09:30pm 7.8 6.2 2.3 68 2.3 CALM 0 0 0 0 - - 0.0
27/09:00pm 8.7 6.9 1.1 59 3.1 CALM 0 4 0 2 - - 0.0
27/08:30pm 9.8 7.2 0.9 54 3.7 SSW 4 9 2 5 - - 0.0
27/08:00pm 11.8 9.1 0.6 46 4.7 SSW 4 11 2 6 - - 0.0
27/07:30pm 12.2 9.1 0.0 43 5.0 SSW 6 11 3 6 - - 0.0
27/07:00pm 13.7 9.5 -0.7 37 5.9 SW 11 26 6 14 - - 0.0
27/06:30pm 13.2 9.8 -0.8 38 5.7 SW 7 11 4 6 - - 0.0
27/06:00pm 14.7 10.0 -1.8 32 6.7 SW 13 22 7 12 - - 0.0
27/05:30pm 15.7 9.8 -2.3 29 7.3 WSW 19 39 10 21 - - 0.0
27/05:00pm 16.5 10.6 -2.5 27 7.8 WSW 19 35 10 19 - - 0.0
27/04:30pm 17.2 11.4 -1.4 28 7.8 SW 19 32 10 17 - - 0.0
27/04:00pm 18.1 12.0 -2.2 25 8.5 SW 20 44 11 24 - - 0.0
27/03:30pm 18.5 11.6 -2.4 24 8.7 SW 24 48 13 26 - - 0.0
27/03:00pm 19.2 12.6 -3.0 22 9.2 SW 22 41 12 22 - - 0.0
27/02:51pm 19.2 11.3 -5.0 19 9.6 SW 28 54 15 29 - - 0.0
27/02:30pm 19.8 13.4 -5.2 18 10.0 SW 20 41 11 22 - - 0.0
27/02:00pm 19.7 13.0 -4.5 19 9.8 WSW 22 33 12 18 - - 0.0
27/01:30pm 20.2 13.4 -5.6 17 10.3 WSW 22 43 12 23 - - 0.0
27/01:00pm 20.4 13.3 -4.7 18 10.2 WSW 24 43 13 23 - - 0.0
27/12:30pm 20.6 14.6 -1.2 23 9.5 WSW 20 37 11 20 - - 0.0
27/12:00pm 20.4 14.6 -0.3 25 9.2 WSW 20 43 11 23 - - 0.0
27/11:30am 19.8 14.9 1.7 30 8.3 WSW 17 32 9 17 - - 0.0
27/11:00am 19.4 15.7 4.7 38 7.1 W 13 24 7 13 - - 0.0
27/10:30am 18.4 15.5 4.6 40 6.6 WNW 9 13 5 7 - - 0.0
27/10:00am 17.7 14.5 5.0 43 6.1 N 11 15 6 8 - - 0.0
27/09:30am 17.4 14.7 5.4 45 5.8 NE 9 13 5 7 - - 0.0
27/09:00am 16.2 14.0 7.9 58 4.2 N 9 15 5 8 - - 0.0
27/08:30am 13.1 10.1 6.2 63 3.3 N 11 15 6 8 - - 0.0
27/08:00am 11.3 8.9 5.4 67 2.7 N 7 13 4 7 - - 0.0
27/07:30am 9.5 7.5 6.9 84 1.2 N 7 13 4 7 - - 0.0
27/07:00am 6.4 5.6 6.3 99 0.0 CALM 0 0 0 0 - - 0.0
27/06:30am 3.9 2.2 3.8 99 0.0 W 2 6 1 3 - - 0.0
27/06:00am 3.5 2.1 3.4 99 0.0 CALM 0 0 0 0 - - 0.0
27/05:30am 3.6 1.8 3.3 98 0.1 S 2 7 1 4 - - 0.0
27/05:00am 3.5 2.0 3.2 98 0.1 CALM 0 0 0 0 - - 0.0
27/04:30am 3.5 2.0 2.9 96 0.2 CALM 0 0 0 0 - - 0.0
27/04:00am 3.9 2.4 3.2 95 0.3 CALM 0 0 0 0 - - 0.0
27/03:30am 4.4 3.0 3.7 95 0.3 CALM 0 0 0 0 - - 0.0
27/03:00am 4.5 2.7 3.5 93 0.4 SW 2 9 1 5 - - 0.0
27/02:30am 5.1 3.7 3.8 91 0.5 CALM 0 0 0 0 - - 0.0
27/02:00am 5.6 4.2 3.8 88 0.8 CALM 0 0 0 0 - - 0.0
27/01:30am 5.7 4.3 3.5 86 0.9 CALM 0 0 0 0 - - 0.0
27/01:00am 6.2 4.9 4.0 86 0.9 CALM 0 0 0 0 - - 0.0
27/12:30am 6.6 5.2 3.8 82 1.2 CALM 0 0 0 0 - - 0.0
27/12:00am 7.2 5.1 3.8 79 1.5 SW 4 6 2 3 - - 0.0
 
Date/Time
EST
Temp
°C
App
Temp
°C
Dew
Point
°C
Rel
Hum
%
Delta-T
°C
Wind Press
QNH
hPa
Press
MSL
hPa
Rain since
9am
mm
Dir  Spd
km/h
Gust
km/h
Spd
kts
Gust
kts
26/11:30pm 7.4 4.9 3.6 77 1.6 WSW 6 7 3 4 - - 0.0
26/11:00pm 8.6 7.1 3.2 69 2.3 CALM 0 6 0 3 - - 0.0
26/10:30pm 9.1 6.4 2.9 65 2.7 W 6 7 3 4 - - 0.0
26/10:00pm 11.6 8.9 2.4 53 4.0 W 6 9 3 5 - - 0.0
26/09:30pm 12.4 9.4 2.0 49 4.5 W 7 11 4 6 - - 0.0
26/09:00pm 13.1 9.7 1.8 46 4.9 WNW 9 17 5 9 - - 0.0
26/08:30pm 13.1 10.2 1.5 45 5.0 W 6 13 3 7 - - 0.0
26/08:00pm 13.8 10.6 0.8 41 5.6 WSW 7 13 4 7 - - 0.0
26/07:30pm 14.4 10.8 0.6 39 5.9 WSW 9 19 5 10 - - 0.0
26/07:00pm 14.6 10.2 0.1 37 6.1 SW 13 22 7 12 - - 0.0
26/06:30pm 14.7 11.5 0.5 38 6.1 SW 7 20 4 11 - - 0.0
26/06:00pm 15.5 11.4 -0.3 34 6.7 SW 11 17 6 9 - - 0.0
26/05:30pm 16.7 12.1 -0.9 30 7.4 SW 13 26 7 14 - - 0.0
26/05:00pm 17.8 13.4 0.5 31 7.6 SW 13 22 7 12 - - 0.0
26/04:30pm 17.6 12.7 -0.6 29 7.8 SW 15 28 8 15 - - 0.0
26/04:00pm 17.1 14.2 6.3 49 5.3 SE 11 17 6 9 - - 0.0
26/03:30pm 19.1 15.3 2.0 32 7.8 SSW 11 20 6 11 - - 0.0
26/03:00pm 19.5 16.5 1.9 31 8.1 SSW 7 15 4 8 - - 0.0
26/02:30pm 21.4 18.1 2.2 28 9.0 SW 9 17 5 9 - - 0.0
26/02:00pm 20.0 16.5 1.0 28 8.6 W 9 15 5 8 - - 0.0
26/01:30pm 21.4 18.1 2.6 29 8.9 S 9 17 5 9 - - 0.0
26/01:00pm 20.3 17.0 2.2 30 8.4 S 9 17 5 9 - - 0.0
26/12:30pm 19.5 16.0 1.5 30 8.2 WSW 9 17 5 9 - - 0.0
26/12:00pm 19.7 16.7 4.2 36 7.5 W 9 17 5 9 - - 0.0
26/11:30am 18.5 14.7 1.5 32 7.7 SW 11 19 6 10 - - 0.0
26/11:00am 18.2 14.0 1.7 33 7.5 SSW 13 24 7 13 - - 0.0
26/10:30am 17.7 14.0 2.1 35 7.1 SW 11 22 6 12 - - 0.0
26/10:00am 16.5 12.4 2.5 39 6.4 WSW 13 22 7 12 - - 0.0
26/09:30am 15.8 11.8 2.9 42 5.9 W 13 19 7 10 - - 0.0
26/09:00am 14.9 10.6 3.4 46 5.2 WSW 15 22 8 12 - - 0.4
26/08:30am 14.0 10.9 5.6 57 4.0 SW 11 19 6 10 - - 0.4
26/08:00am 12.9 10.6 5.6 61 3.4 SW 7 11 4 6 - - 0.4
26/07:30am 11.9 9.8 5.8 66 2.9 SW 6 9 3 5 - - 0.4
26/07:00am 10.5 8.3 6.1 74 2.1 SSW 7 11 4 6 - - 0.4
26/06:30am 8.4 7.1 6.0 85 1.1 SSW 2 7 1 4 - - 0.4
26/06:00am 9.0 6.7 5.0 76 1.8 S 6 11 3 6 - - 0.4
26/05:30am 9.1 6.3 5.3 77 1.7 SSE 9 15 5 8 - - 0.4
26/05:00am 9.7 7.1 5.9 77 1.8 SSW 9 17 5 9 - - 0.4
26/04:30am 8.8 6.6 6.1 83 1.2 SSW 7 11 4 6 - - 0.4
26/04:00am 10.0 7.5 6.7 80 1.6 SSW 9 15 5 8 - - 0.4
26/03:30am 10.5 7.9 7.6 82 1.4 SSW 11 19 6 10 - - 0.4
26/03:00am 10.4 7.5 8.3 87 1.0 SSW 13 20 7 11 - - 0.4
26/02:30am 10.5 8.8 9.7 95 0.4 SSW 9 15 5 8 - - 0.4
26/02:00am 10.7 9.2 10.5 99 0.1 SSW 9 13 5 7 - - 0.4
26/01:30am 10.3 9.0 10.1 99 0.1 SSW 7 13 4 7 - - 0.4
26/01:00am 10.0 10.0 9.7 98 0.2 CALM 0 0 0 0 - - 0.4
26/12:30am 11.0 11.3 10.8 99 0.1 CALM 0 0 0 0 - - 0.4
26/12:00am 10.9 10.0 10.7 99 0.1 SSW 6 7 3 4 - - 0.4
 
Date/Time
EST
Temp
°C
App
Temp
°C
Dew
Point
°C
Rel
Hum
%
Delta-T
°C
Wind Press
QNH
hPa
Press
MSL
hPa
Rain since
9am
mm
Dir  Spd
km/h
Gust
km/h
Spd
kts
Gust
kts
25/11:30pm 10.8 9.9 10.5 98 0.2 S 6 7 3 4 - - 0.4
25/11:00pm 11.4 11.8 11.2 99 0.1 CALM 0 0 0 0 - - 0.4
25/10:30pm 11.0 11.3 10.8 99 0.1 CALM 0 0 0 0 - - 0.4
25/10:00pm 10.4 10.4 9.8 96 0.3 CALM 0 0 0 0 - - 0.4
25/09:30pm 10.7 10.6 9.6 93 0.6 CALM 0 0 0 0 - - 0.4
25/09:00pm 11.6 11.7 10.3 92 0.7 CALM 0 0 0 0 - - 0.4
25/08:30pm 12.4 11.7 11.3 93 0.6 S 6 9 3 5 - - 0.4
25/08:00pm 12.1 11.4 11.5 96 0.3 S 6 9 3 5 - - 0.4
25/07:30pm 11.7 10.9 10.9 95 0.4 SSW 6 7 3 4 - - 0.4
25/07:00pm 12.2 12.5 10.8 91 0.7 CALM 0 6 0 3 - - 0.4
25/06:30pm 13.2 12.4 11.1 87 1.1 S 6 7 3 4 - - 0.2
25/06:00pm 14.2 13.5 11.5 84 1.4 S 6 9 3 5 - - 0.2
25/05:30pm 15.2 14.0 11.6 79 1.9 S 9 15 5 8 - - 0.2
25/05:00pm 16.4 14.0 10.0 66 3.4 S 13 22 7 12 - - 0.0
25/04:30pm 17.6 15.2 8.7 56 4.6 S 11 19 6 10 - - 0.0
25/04:00pm 18.8 17.4 9.6 55 4.9 SSE 7 11 4 6 - - 0.0
25/03:30pm 18.2 16.3 7.6 50 5.4 SSE 7 13 4 7 - - 0.0
25/03:00pm 18.9 16.5 7.0 46 6.0 S 9 15 5 8 - - 0.0
25/02:30pm 20.2 17.5 7.2 43 6.7 S 11 20 6 11 - - 0.0
25/02:00pm 21.3 17.2 6.0 37 7.7 WSW 17 35 9 19 - - 0.0
25/01:30pm 22.0 17.7 5.4 34 8.3 WSW 17 30 9 16 - - 0.0
25/01:00pm 21.0 16.9 6.2 38 7.5 SW 17 30 9 16 - - 0.0
25/12:30pm 21.8 17.9 7.2 39 7.6 SSW 17 26 9 14 - - 0.0
25/12:00pm 22.1 19.5 9.3 44 6.9 W 13 24 7 13 - - 0.0
25/11:30am 21.1 18.3 8.4 44 6.7 SW 13 28 7 15 - - 0.0
25/11:00am 20.1 18.1 10.2 53 5.4 W 11 17 6 9 - - 0.0
25/10:30am 17.6 16.2 9.5 59 4.3 NW 7 13 4 7 - - 0.0
25/10:00am 17.3 15.9 9.5 60 4.1 NW 7 13 4 7 - - 0.0
25/09:30am 16.6 14.6 8.6 59 4.1 WNW 9 13 5 7 - - 0.0
25/09:00am 16.0 14.6 9.4 65 3.4 NW 7 11 4 6 - - 0.0
25/08:30am 15.9 14.5 8.9 63 3.6 NW 6 11 3 6 - - 0.0
25/08:00am 16.3 14.5 9.3 63 3.6 NW 9 15 5 8 - - 0.0
25/07:30am 14.3 15.6 14.1 99 0.1 CALM 0 0 0 0 - - 0.0
25/07:00am 13.4 14.4 13.2 99 0.1 CALM 0 0 0 0 - - 0.0
25/06:30am 12.9 13.7 12.7 99 0.1 CALM 0 0 0 0 - - 0.0
25/06:00am 12.9 13.7 12.7 99 0.1 CALM 0 0 0 0 - - 0.0
25/05:30am 13.0 13.5 12.8 99 0.1 S 2 7 1 4 - - 0.0
25/05:00am 13.2 14.1 13.0 99 0.1 CALM 0 0 0 0 - - 0.0
25/04:30am 13.3 14.3 13.1 99 0.1 CALM 0 0 0 0 - - 0.0
25/04:00am 13.3 14.2 13.0 98 0.2 CALM 0 0 0 0 - - 0.0
25/03:30am 13.5 14.4 12.9 96 0.3 CALM 0 0 0 0 - - 0.0
25/03:00am 13.6 14.1 12.7 94 0.5 SW 2 6 1 3 - - 0.0
25/02:30am 13.9 14.8 12.8 93 0.6 CALM 0 6 0 3 - - 0.0
25/02:00am 13.6 13.6 12.5 93 0.6 S 4 9 2 5 - - 0.0
25/01:30am 14.0 13.8 12.9 93 0.6 SSW 6 9 3 5 - - 0.0
25/01:00am 13.8 13.5 13.2 96 0.3 SSW 7 11 4 6 - - 0.0
25/12:30am 13.7 14.6 12.9 95 0.4 CALM 0 0 0 0 - - 0.0
25/12:00am 14.0 13.9 13.2 95 0.4 S 6 7 3 4 - - 0.0

Latest Capital City Observations: Canberra | Sydney | Melbourne | Brisbane | Adelaide | Perth | Hobart | Darwin

Other Formats:

Comma delimited format used in spreadsheet applications
http://www.bom.gov.au/fwo/IDN60901/IDN60901.94757.axf

JavaScript Object Notation format (JSON) in row-major order
http://www.bom.gov.au/fwo/IDN60901/IDN60901.94757.json